createdAt,value
2022-09-28T00:01:20.856Z,5.53
2022-09-28T00:03:51.697Z,6.30
2022-09-28T00:06:22.191Z,12.73
2022-09-28T00:08:51.931Z,3.15
2022-09-28T00:11:21.227Z,3.42
2022-09-28T00:13:53.668Z,3.42
2022-09-28T00:16:28.770Z,4.32
2022-09-28T00:18:55.907Z,2.25
2022-09-28T00:21:27.198Z,3.00
2022-09-28T00:24:12.973Z,5.95
2022-09-28T00:26:51.871Z,4.85
2022-09-28T00:29:21.694Z,6.43
2022-09-28T00:31:52.512Z,5.07
2022-09-28T00:34:20.844Z,6.35
2022-09-28T00:36:49.459Z,4.43
2022-09-28T00:39:17.793Z,5.93
2022-09-28T00:41:46.795Z,5.80
2022-09-28T00:44:25.829Z,4.07
2022-09-28T00:47:08.162Z,3.20
2022-09-28T00:49:45.777Z,6.57
2022-09-28T00:52:20.286Z,10.10
2022-09-28T00:54:49.277Z,5.70
2022-09-28T00:57:17.103Z,4.97
2022-09-28T00:59:44.612Z,5.35
2022-09-28T01:02:11.806Z,8.18
2022-09-28T01:04:39.325Z,8.50
2022-09-28T01:07:09.324Z,6.80
2022-09-28T01:09:40.744Z,7.80
2022-09-28T01:12:08.191Z,7.38
2022-09-28T01:14:35.445Z,8.00
2022-09-28T01:17:16.805Z,5.93
2022-09-28T01:20:34.177Z,5.38
2022-09-28T01:23:13.073Z,6.57
2022-09-28T01:25:54.187Z,4.05
2022-09-28T01:28:26.582Z,5.43
2022-09-28T01:31:11.105Z,7.55
2022-09-28T01:33:45.489Z,9.55
2022-09-28T01:36:19.597Z,6.18
2022-09-28T01:38:53.548Z,6.15
2022-09-28T01:41:24.200Z,5.90
2022-09-28T01:43:57.802Z,5.53
2022-09-28T01:46:37.299Z,10.03
2022-09-28T01:49:34.263Z,4.20
2022-09-28T01:52:18.560Z,4.15
2022-09-28T01:55:06.523Z,4.55
2022-09-28T01:57:44.806Z,7.18
2022-09-28T02:00:15.756Z,5.88
2022-09-28T02:03:16.765Z,4.95
2022-09-28T02:06:04.204Z,7.25
2022-09-28T02:08:55.019Z,7.20
2022-09-28T02:11:31.061Z,9.43
2022-09-28T02:14:06.097Z,7.32
2022-09-28T02:16:43.017Z,6.53
2022-09-28T02:19:15.991Z,8.98
2022-09-28T02:22:29.237Z,8.02
2022-09-28T02:25:05.706Z,6.30
2022-09-28T02:27:55.687Z,9.80
2022-09-28T02:30:22.921Z,8.35
2022-09-28T02:32:55.196Z,6.80
2022-09-28T02:35:22.771Z,10.82
2022-09-28T02:37:50.692Z,8.60
2022-09-28T02:40:32.804Z,7.70
2022-09-28T02:43:29.535Z,6.20
2022-09-28T02:46:18.283Z,10.50
2022-09-28T02:49:21.917Z,9.43
2022-09-28T02:51:59.737Z,14.43
2022-09-28T02:55:11.776Z,14.45
2022-09-28T02:58:29.163Z,12.75
2022-09-28T03:01:22.856Z,11.52
2022-09-28T03:04:26.884Z,11.97
2022-09-28T03:07:13.448Z,14.02
2022-09-28T03:09:52.744Z,11.07
2022-09-28T03:12:23.606Z,15.60
2022-09-28T03:15:33.922Z,14.52
2022-09-28T03:18:01.498Z,17.40
2022-09-28T03:20:32.163Z,14.98
2022-09-28T03:23:23.326Z,15.85
2022-09-28T03:25:47.356Z,14.73
2022-09-28T03:28:14.713Z,14.20
2022-09-28T03:30:43.469Z,15.43
2022-09-28T03:33:11.265Z,15.77
2022-09-28T03:35:39.145Z,13.65
2022-09-28T03:38:06.282Z,14.15
2022-09-28T03:40:36.916Z,11.88
2022-09-28T03:43:03.969Z,13.75
2022-09-28T03:45:31.015Z,12.00
2022-09-28T03:47:58.562Z,15.88
2022-09-28T03:50:25.894Z,13.50
2022-09-28T03:52:52.858Z,9.32
2022-09-28T03:55:19.846Z,9.88
2022-09-28T03:57:54.984Z,11.85
2022-09-28T04:00:21.939Z,9.73
2022-09-28T04:02:49.466Z,12.55
2022-09-28T04:05:16.640Z,16.05
2022-09-28T04:07:43.653Z,17.50
2022-09-28T04:10:10.604Z,16.85
2022-09-28T04:12:40.915Z,16.63
2022-09-28T04:15:08.904Z,18.40
2022-09-28T04:17:39.937Z,18.33
2022-09-28T04:20:12.773Z,15.07
2022-09-28T04:22:45.420Z,17.70
2022-09-28T04:25:12.392Z,14.73
2022-09-28T04:27:57.836Z,14.27
2022-09-28T04:30:24.910Z,19.42
2022-09-28T04:32:53.542Z,17.63
2022-09-28T04:35:21.329Z,16.50
2022-09-28T04:37:48.488Z,14.10
2022-09-28T04:40:15.810Z,18.45
2022-09-28T04:42:43.289Z,19.58
2022-09-28T04:45:10.889Z,15.50
2022-09-28T04:47:42.380Z,17.60
2022-09-28T04:50:38.687Z,15.75
2022-09-28T04:53:21.986Z,12.82
2022-09-28T04:56:04.170Z,13.90
2022-09-28T04:58:33.335Z,14.50
2022-09-28T05:01:05.973Z,14.80
2022-09-28T05:03:51.550Z,17.63
2022-09-28T05:06:41.357Z,14.20
2022-09-28T05:09:09.583Z,12.82
2022-09-28T05:11:36.573Z,11.07
2022-09-28T05:14:07.157Z,10.30
2022-09-28T05:16:34.439Z,9.27
2022-09-28T05:19:19.380Z,10.18
2022-09-28T05:21:47.006Z,13.25
2022-09-28T05:24:14.571Z,8.05
2022-09-28T05:26:44.870Z,7.15
2022-09-28T05:29:12.028Z,7.00
2022-09-28T05:31:57.939Z,7.03
2022-09-28T05:34:49.541Z,7.00
2022-09-28T05:37:24.036Z,8.48
2022-09-28T05:39:51.081Z,6.63
2022-09-28T05:42:18.207Z,8.18
2022-09-28T05:44:45.290Z,5.57
2022-09-28T05:47:13.286Z,4.13
2022-09-28T05:49:40.279Z,5.57
2022-09-28T05:52:07.271Z,4.70
2022-09-28T05:54:37.671Z,4.20
2022-09-28T05:57:07.075Z,4.13
2022-09-28T05:59:35.248Z,3.55
2022-09-28T06:02:04.376Z,6.15
2022-09-28T06:04:31.934Z,2.78
2022-09-28T06:06:59.848Z,3.80
2022-09-28T06:09:27.455Z,3.88
2022-09-28T06:12:13.206Z,3.78
2022-09-28T06:14:44.766Z,4.03
2022-09-28T06:17:12.732Z,6.40
2022-09-28T06:19:41.386Z,4.03
2022-09-28T06:22:26.290Z,6.60
2022-09-28T06:25:04.297Z,4.28
2022-09-28T06:27:31.492Z,7.32
2022-09-28T06:30:00.933Z,3.70
2022-09-28T06:32:30.011Z,3.78
2022-09-28T06:34:57.806Z,5.88
2022-09-28T06:37:27.303Z,2.67
2022-09-28T06:39:56.564Z,3.10
2022-09-28T06:42:24.345Z,4.18
2022-09-28T06:45:25.593Z,4.03
2022-09-28T06:48:11.080Z,3.03
2022-09-28T06:50:41.482Z,3.70
2022-09-28T06:53:29.829Z,2.47
2022-09-28T06:56:01.369Z,3.35
2022-09-28T06:58:29.914Z,3.08
2022-09-28T07:00:59.518Z,4.63
2022-09-28T07:03:28.616Z,5.38
2022-09-28T07:05:57.004Z,3.83
2022-09-28T07:08:41.493Z,3.92
2022-09-28T07:11:27.500Z,2.97
2022-09-28T07:14:24.954Z,3.35
2022-09-28T07:17:12.416Z,5.05
2022-09-28T07:19:41.429Z,5.68
2022-09-28T07:22:08.821Z,2.50
2022-09-28T07:24:36.147Z,3.03
2022-09-28T07:27:39.634Z,3.70
2022-09-28T07:30:20.473Z,1.33
2022-09-28T07:33:32.878Z,2.80
2022-09-28T07:36:21.012Z,2.75
2022-09-28T07:38:48.604Z,2.70
2022-09-28T07:41:21.619Z,2.70
2022-09-28T07:43:51.071Z,2.17
2022-09-28T07:46:21.323Z,2.40
2022-09-28T07:48:55.707Z,3.58
2022-09-28T07:51:52.819Z,2.60
2022-09-28T07:54:39.459Z,2.22
2022-09-28T07:57:07.034Z,3.85
2022-09-28T07:59:57.238Z,2.45
2022-09-28T08:02:45.740Z,1.42
2022-09-28T08:05:17.724Z,2.65
2022-09-28T08:07:44.993Z,4.50
2022-09-28T08:10:12.972Z,2.53
2022-09-28T08:13:04.763Z,3.22
2022-09-28T08:15:55.296Z,1.20
2022-09-28T08:18:32.837Z,1.60
2022-09-28T08:21:21.681Z,2.08
2022-09-28T08:23:49.790Z,1.83
2022-09-28T08:26:17.366Z,3.15
2022-09-28T08:28:47.747Z,3.83
2022-09-28T08:31:33.458Z,3.03
2022-09-28T08:34:21.253Z,2.30
2022-09-28T08:37:11.138Z,2.63
2022-09-28T08:40:01.695Z,4.78
2022-09-28T08:43:00.490Z,2.15
2022-09-28T08:45:36.672Z,1.33
2022-09-28T08:48:56.225Z,1.20
2022-09-28T08:51:59.793Z,3.25
2022-09-28T08:55:02.796Z,1.30
2022-09-28T08:57:58.210Z,1.10
2022-09-28T09:00:54.189Z,1.83
2022-09-28T09:03:35.873Z,1.40
2022-09-28T09:06:52.008Z,6.28
2022-09-28T09:10:19.282Z,2.83
2022-09-28T09:13:12.343Z,2.28
2022-09-28T09:15:56.412Z,4.00
2022-09-28T09:18:47.625Z,4.88
2022-09-28T09:21:42.179Z,3.22
2022-09-28T09:24:27.279Z,4.05
2022-09-28T09:27:41.348Z,2.10
2022-09-28T09:30:18.700Z,7.57
2022-09-28T09:33:25.082Z,3.92
2022-09-28T09:36:18.132Z,1.50
2022-09-28T09:39:24.199Z,2.05
2022-09-28T09:42:35.716Z,2.08
2022-09-28T09:45:48.223Z,3.47
2022-09-28T09:48:47.289Z,6.30
2022-09-28T09:51:26.064Z,4.28
2022-09-28T09:54:02.402Z,1.17
2022-09-28T09:56:57.382Z,0.60
2022-09-28T09:59:45.359Z,2.25
2022-09-28T10:02:35.030Z,2.17
2022-09-28T10:05:23.358Z,4.88
2022-09-28T10:08:10.362Z,4.05
2022-09-28T10:10:50.061Z,1.90
2022-09-28T10:13:19.376Z,1.65
2022-09-28T10:15:48.202Z,1.75
2022-09-28T10:18:23.335Z,5.07
2022-09-28T10:21:15.383Z,1.60
2022-09-28T10:23:59.221Z,3.42
2022-09-28T10:26:39.751Z,1.80
2022-09-28T10:29:23.001Z,3.63
2022-09-28T10:31:52.403Z,1.52
2022-09-28T10:34:35.659Z,2.08
2022-09-28T10:37:13.372Z,3.35
2022-09-28T10:40:06.842Z,5.43
2022-09-28T10:42:36.422Z,5.45
2022-09-28T10:45:23.260Z,1.58
2022-09-28T10:47:53.885Z,5.30
2022-09-28T10:50:26.281Z,6.18
2022-09-28T10:53:21.761Z,5.43
2022-09-28T10:56:23.359Z,3.72
2022-09-28T10:59:28.566Z,6.22
2022-09-28T11:02:48.747Z,4.78
2022-09-28T11:05:29.007Z,8.85
2022-09-28T11:08:02.563Z,5.10
2022-09-28T11:10:38.069Z,8.27
2022-09-28T11:13:12.542Z,8.85
2022-09-28T11:15:44.464Z,7.50
2022-09-28T11:18:34.517Z,2.00
2022-09-28T11:21:21.507Z,2.80
2022-09-28T11:24:19.508Z,4.15
2022-09-28T11:26:52.925Z,2.97
2022-09-28T11:29:35.008Z,2.55
2022-09-28T11:32:30.702Z,3.50
2022-09-28T11:35:50.644Z,3.08
2022-09-28T11:38:36.231Z,1.65
2022-09-28T11:41:34.918Z,4.90
2022-09-28T11:44:29.467Z,1.67
2022-09-28T11:47:25.634Z,3.35
2022-09-28T11:50:23.732Z,3.60
2022-09-28T11:53:10.500Z,3.08
2022-09-28T11:55:54.326Z,3.00
2022-09-28T11:58:45.044Z,2.40
2022-09-28T12:01:36.151Z,3.38
2022-09-28T12:04:39.583Z,5.10
2022-09-28T12:07:18.019Z,3.58
2022-09-28T12:10:13.516Z,8.90
2022-09-28T12:12:52.536Z,5.85
2022-09-28T12:15:24.374Z,7.60
2022-09-28T12:18:07.427Z,4.60
2022-09-28T12:20:42.709Z,6.13
2022-09-28T12:23:25.957Z,3.72
2022-09-28T12:26:04.830Z,3.42
2022-09-28T12:28:40.126Z,1.45
2022-09-28T12:31:26.424Z,7.05
2022-09-28T12:33:53.373Z,5.45
2022-09-28T12:36:56.558Z,5.82
2022-09-28T12:40:02.252Z,8.90
2022-09-28T12:42:53.066Z,4.63
2022-09-28T12:46:11.972Z,2.25
2022-09-28T12:48:52.925Z,5.13
2022-09-28T12:51:57.619Z,3.30
2022-09-28T12:55:15.234Z,7.38
2022-09-28T12:58:00.227Z,6.32
2022-09-28T13:00:55.019Z,5.82
2022-09-28T13:03:31.195Z,4.38
2022-09-28T13:09:14.773Z,4.05
2022-09-28T13:11:54.599Z,6.35
2022-09-28T13:14:51.365Z,4.25
2022-09-28T13:18:04.126Z,7.00
2022-09-28T13:24:04.332Z,4.30
2022-09-28T13:26:44.993Z,4.40
2022-09-28T13:29:16.244Z,10.93
2022-09-28T13:34:38.279Z,2.88
2022-09-28T13:37:23.427Z,3.00
2022-09-28T13:40:05.826Z,3.67
2022-09-28T13:42:45.154Z,6.55
2022-09-28T13:45:21.503Z,6.25
2022-09-28T13:47:51.921Z,6.28
2022-09-28T13:51:11.519Z,2.22
2022-09-28T13:53:56.384Z,6.00
2022-09-28T13:56:49.658Z,6.47
2022-09-28T13:59:29.852Z,7.00
2022-09-28T14:02:30.339Z,4.97
2022-09-28T14:05:02.291Z,2.00
2022-09-28T14:07:35.066Z,4.80
2022-09-28T14:10:22.237Z,3.28
2022-09-28T14:12:54.143Z,4.13
2022-09-28T14:15:30.305Z,5.68
2022-09-28T14:18:54.962Z,4.57
2022-09-28T14:22:19.541Z,4.18
2022-09-28T14:25:15.265Z,5.32
2022-09-28T14:28:01.739Z,8.40
2022-09-28T14:30:45.408Z,3.85
2022-09-28T14:33:33.679Z,7.53
2022-09-28T14:36:05.220Z,5.28
2022-09-28T14:39:02.869Z,6.93
2022-09-28T14:41:43.157Z,3.38
2022-09-28T14:44:13.487Z,3.85
2022-09-28T14:46:47.876Z,7.03
2022-09-28T14:49:17.631Z,10.50
2022-09-28T14:51:47.529Z,7.82
2022-09-28T14:54:23.575Z,5.25
2022-09-28T14:56:53.601Z,7.47
2022-09-28T14:59:30.916Z,5.60
2022-09-28T15:02:01.333Z,4.82
2022-09-28T15:04:31.268Z,7.85
2022-09-28T15:06:58.329Z,4.72
2022-09-28T15:09:36.547Z,7.10
2022-09-28T15:12:15.143Z,7.68
2022-09-28T15:14:48.138Z,3.13
2022-09-28T15:17:23.553Z,5.10
2022-09-28T15:20:02.701Z,5.60
2022-09-28T15:22:30.271Z,4.63
2022-09-28T15:25:02.449Z,5.32
2022-09-28T15:27:37.498Z,5.97
2022-09-28T15:30:25.471Z,4.05
2022-09-28T15:33:16.977Z,5.97
2022-09-28T15:35:56.764Z,5.32
2022-09-28T15:38:24.166Z,4.88
2022-09-28T15:40:51.522Z,7.13
2022-09-28T15:43:27.004Z,4.32
2022-09-28T15:46:08.079Z,5.35
2022-09-28T15:48:46.669Z,6.25
2022-09-28T15:51:13.803Z,4.18
2022-09-28T15:53:59.076Z,6.10
2022-09-28T15:56:27.664Z,6.18
2022-09-28T15:59:33.153Z,6.28
2022-09-28T16:02:23.002Z,4.18
2022-09-28T16:05:01.963Z,6.68
2022-09-28T16:07:35.326Z,4.80
2022-09-28T16:10:12.956Z,5.53
2022-09-28T16:12:40.546Z,7.47
2022-09-28T16:15:20.160Z,4.88
2022-09-28T16:17:56.241Z,7.43
2022-09-28T16:20:29.995Z,10.65
2022-09-28T16:23:08.620Z,6.15
2022-09-28T16:25:39.076Z,5.25
2022-09-28T16:28:07.650Z,6.00
2022-09-28T16:30:37.047Z,4.82
2022-09-28T16:33:30.250Z,4.28
2022-09-28T16:36:03.431Z,3.70
2022-09-28T16:38:31.673Z,4.60
2022-09-28T16:41:02.286Z,8.88
2022-09-28T16:43:31.601Z,6.70
2022-09-28T16:46:14.686Z,7.25
2022-09-28T16:48:49.089Z,5.93
2022-09-28T16:51:18.790Z,6.53
2022-09-28T16:54:05.004Z,4.63
2022-09-28T16:56:34.564Z,5.32
2022-09-28T16:59:02.758Z,5.50
2022-09-28T17:01:31.214Z,6.93
2022-09-28T17:03:58.558Z,4.75
2022-09-28T17:06:26.584Z,7.80
2022-09-28T17:08:56.670Z,6.15
2022-09-28T17:11:25.088Z,6.43
2022-09-28T17:13:56.868Z,5.65
2022-09-28T17:16:51.011Z,6.45
2022-09-28T17:19:24.929Z,10.40
2022-09-28T17:21:53.788Z,5.80
2022-09-28T17:24:21.389Z,10.50
2022-09-28T17:26:51.983Z,8.95
2022-09-28T17:29:20.050Z,8.05
2022-09-28T17:31:48.018Z,9.82
2022-09-28T17:34:17.676Z,6.65
2022-09-28T17:36:45.614Z,9.77
2022-09-28T17:39:19.127Z,8.70
2022-09-28T17:44:17.541Z,12.38
2022-09-28T17:46:49.083Z,9.13
2022-09-28T17:49:18.572Z,8.13
2022-09-28T17:51:48.499Z,10.68
2022-09-28T17:54:19.311Z,5.97
2022-09-28T17:56:50.435Z,8.65
2022-09-28T17:59:21.249Z,9.82
2022-09-28T18:01:49.292Z,6.25
2022-09-28T18:04:40.154Z,9.25
2022-09-28T18:07:06.744Z,8.85
2022-09-28T18:09:35.087Z,10.25
2022-09-28T18:12:06.386Z,11.52
2022-09-28T18:14:35.822Z,6.75
2022-09-28T18:17:03.557Z,8.45
2022-09-28T18:19:32.283Z,10.38
2022-09-28T18:22:02.875Z,8.32
2022-09-28T18:24:32.450Z,8.85
2022-09-28T18:27:02.982Z,7.32
2022-09-28T18:29:33.307Z,7.32
2022-09-28T18:32:04.354Z,9.65
2022-09-28T18:34:39.962Z,8.27
2022-09-28T18:37:08.510Z,7.88
2022-09-28T18:39:37.225Z,12.95
2022-09-28T18:42:07.137Z,9.50
2022-09-28T18:44:37.174Z,9.10
2022-09-28T18:47:05.371Z,8.57
2022-09-28T18:49:33.605Z,6.88
2022-09-28T18:52:03.489Z,9.60
2022-09-28T18:54:31.584Z,17.67
2022-09-28T18:57:00.707Z,12.98
2022-09-28T18:59:29.261Z,7.03
2022-09-28T19:02:00.816Z,6.68
2022-09-28T19:04:30.533Z,4.45
2022-09-28T19:09:26.535Z,15.15
2022-09-28T19:11:55.196Z,6.05
2022-09-28T19:14:25.854Z,10.48
2022-09-28T19:16:56.039Z,4.22
2022-09-28T19:19:24.235Z,9.82
2022-09-28T19:21:53.122Z,4.88
2022-09-28T19:24:21.770Z,10.48
2022-09-28T19:26:53.486Z,6.78
2022-09-28T19:29:23.475Z,5.55
2022-09-28T19:31:52.393Z,4.38
2022-09-28T19:34:21.875Z,7.57
2022-09-28T19:36:50.738Z,11.18
2022-09-28T19:39:18.430Z,7.00
2022-09-28T19:41:53.020Z,9.10
2022-09-28T19:47:07.492Z,5.63
2022-09-28T19:49:38.639Z,6.80
2022-09-28T19:52:16.491Z,6.93
2022-09-28T19:55:01.594Z,4.55
2022-09-28T19:57:33.487Z,7.03
2022-09-28T20:00:03.850Z,6.05
2022-09-28T20:02:39.090Z,6.72
2022-09-28T20:05:10.118Z,8.32
2022-09-28T20:07:39.846Z,9.80
2022-09-28T20:10:13.776Z,8.13
2022-09-28T20:12:44.111Z,4.68
2022-09-28T20:15:16.279Z,5.47
2022-09-28T20:17:45.913Z,3.97
2022-09-28T20:20:14.539Z,7.53
2022-09-28T20:22:43.943Z,5.90
2022-09-28T20:25:13.280Z,7.72
2022-09-28T20:27:41.556Z,4.20
2022-09-28T20:30:09.654Z,5.38
2022-09-28T20:32:39.693Z,6.63
2022-09-28T20:35:08.501Z,6.07
2022-09-28T20:37:36.178Z,7.72
2022-09-28T20:40:05.620Z,9.55
2022-09-28T20:42:35.183Z,8.18
2022-09-28T20:45:05.670Z,7.57
2022-09-28T20:47:33.292Z,4.72
2022-09-28T20:50:02.853Z,5.72
2022-09-28T20:52:32.310Z,3.67
2022-09-28T20:55:01.089Z,4.93
2022-09-28T20:57:28.842Z,5.03
2022-09-28T20:59:57.774Z,6.80
2022-09-28T21:02:27.547Z,6.07
2022-09-28T21:04:54.654Z,3.65
2022-09-28T21:07:22.388Z,8.20
2022-09-28T21:09:51.025Z,5.28
2022-09-28T21:12:23.634Z,7.35
2022-09-28T21:14:53.391Z,5.85
2022-09-28T21:17:22.968Z,5.20
2022-09-28T21:19:51.970Z,5.82
2022-09-28T21:22:22.274Z,8.90
2022-09-28T21:24:49.128Z,7.38
2022-09-28T21:27:18.837Z,8.60
2022-09-28T21:29:51.536Z,7.15
2022-09-28T21:32:19.513Z,6.07
2022-09-28T21:34:49.311Z,8.77
2022-09-28T21:37:18.174Z,6.32
2022-09-28T21:39:47.933Z,10.15
2022-09-28T21:42:17.634Z,7.07
2022-09-28T21:44:45.803Z,6.20
2022-09-28T21:47:13.981Z,7.40
2022-09-28T21:49:40.967Z,8.18
2022-09-28T21:52:08.642Z,7.28
2022-09-28T21:54:37.814Z,6.32
2022-09-28T21:57:06.882Z,8.40
2022-09-28T21:59:34.605Z,6.97
2022-09-28T22:02:02.078Z,7.70
2022-09-28T22:04:29.498Z,7.53
2022-09-28T22:06:56.835Z,8.27
2022-09-28T22:09:23.967Z,5.60
2022-09-28T22:11:51.247Z,6.32
2022-09-28T22:14:18.554Z,5.68
2022-09-28T22:16:45.621Z,19.65
2022-09-28T22:19:12.643Z,12.38
2022-09-28T22:21:39.839Z,10.75
2022-09-28T22:24:07.703Z,9.70
2022-09-28T22:26:37.003Z,6.72
2022-09-28T22:29:07.698Z,5.20
2022-09-28T22:31:38.735Z,10.68
2022-09-28T22:34:07.572Z,11.85
2022-09-28T22:36:35.069Z,8.98
2022-09-28T22:39:02.230Z,7.38
2022-09-28T22:41:30.057Z,10.23
2022-09-28T22:43:57.505Z,6.80
2022-09-28T22:46:27.387Z,5.50
2022-09-28T22:48:57.722Z,8.90
2022-09-28T22:51:27.767Z,7.00
2022-09-28T22:53:56.541Z,8.38
2022-09-28T22:56:23.884Z,7.28
2022-09-28T22:58:50.799Z,7.07
2022-09-28T23:01:27.454Z,8.57
2022-09-28T23:03:56.521Z,9.77
2022-09-28T23:06:28.340Z,9.03
2022-09-28T23:08:55.277Z,9.07
2022-09-28T23:11:22.441Z,12.43
2022-09-28T23:13:55.495Z,14.77
2022-09-28T23:16:25.526Z,8.95
2022-09-28T23:18:54.737Z,10.02
2022-09-28T23:21:25.444Z,8.77
2022-09-28T23:24:01.498Z,11.73
2022-09-28T23:26:32.072Z,9.90
2022-09-28T23:28:59.745Z,8.90
2022-09-28T23:31:30.463Z,12.20
2022-09-28T23:34:00.257Z,11.63
2022-09-28T23:36:28.047Z,12.93
2022-09-28T23:38:55.263Z,12.35
2022-09-28T23:41:22.289Z,8.55
2022-09-28T23:43:49.275Z,11.45
2022-09-28T23:46:20.432Z,14.30
2022-09-28T23:48:49.210Z,13.07
2022-09-28T23:51:17.044Z,12.38
2022-09-28T23:53:44.468Z,11.93
2022-09-28T23:56:12.077Z,10.13
2022-09-28T23:58:39.062Z,8.40
